sensor_id;sensor_type;location;lat;lon;timestamp;P1;durP1;ratioP1;P2;durP2;ratioP2
43048;SDS011;28673;44.412;11.918;2024-01-30T00:02:08;48.40;;;24.20;;
43048;SDS011;28673;44.412;11.918;2024-01-30T00:04:34;45.00;;;21.45;;
43048;SDS011;28673;44.412;11.918;2024-01-30T00:06:59;50.13;;;22.98;;
43048;SDS011;28673;44.412;11.918;2024-01-30T00:09:25;43.78;;;20.73;;
43048;SDS011;28673;44.412;11.918;2024-01-30T00:11:51;43.03;;;22.90;;
43048;SDS011;28673;44.412;11.918;2024-01-30T00:14:17;43.30;;;20.70;;
43048;SDS011;28673;44.412;11.918;2024-01-30T00:16:43;47.95;;;20.92;;
43048;SDS011;28673;44.412;11.918;2024-01-30T00:19:09;46.95;;;21.77;;
43048;SDS011;28673;44.412;11.918;2024-01-30T00:21:35;42.75;;;20.02;;
43048;SDS011;28673;44.412;11.918;2024-01-30T00:24:01;44.38;;;20.88;;
43048;SDS011;28673;44.412;11.918;2024-01-30T00:26:27;42.00;;;19.60;;
43048;SDS011;28673;44.412;11.918;2024-01-30T00:28:52;46.10;;;21.25;;
43048;SDS011;28673;44.412;11.918;2024-01-30T00:31:18;40.25;;;21.85;;
43048;SDS011;28673;44.412;11.918;2024-01-30T00:33:44;36.13;;;18.85;;
43048;SDS011;28673;44.412;11.918;2024-01-30T00:36:10;36.70;;;19.30;;
43048;SDS011;28673;44.412;11.918;2024-01-30T00:38:36;47.10;;;21.73;;
43048;SDS011;28673;44.412;11.918;2024-01-30T00:41:02;79.28;;;21.83;;
43048;SDS011;28673;44.412;11.918;2024-01-30T00:43:28;88.97;;;23.00;;
43048;SDS011;28673;44.412;11.918;2024-01-30T00:45:54;38.03;;;21.67;;
43048;SDS011;28673;44.412;11.918;2024-01-30T00:48:20;40.60;;;20.23;;
43048;SDS011;28673;44.412;11.918;2024-01-30T00:50:46;46.65;;;22.05;;
43048;SDS011;28673;44.412;11.918;2024-01-30T00:53:12;44.42;;;20.63;;
43048;SDS011;28673;44.412;11.918;2024-01-30T00:55:38;36.85;;;18.67;;
43048;SDS011;28673;44.412;11.918;2024-01-30T00:58:04;48.20;;;22.40;;
43048;SDS011;28673;44.412;11.918;2024-01-30T01:00:30;46.33;;;22.40;;
43048;SDS011;28673;44.412;11.918;2024-01-30T01:02:57;44.63;;;19.42;;
43048;SDS011;28673;44.412;11.918;2024-01-30T01:05:24;46.75;;;22.27;;
43048;SDS011;28673;44.412;11.918;2024-01-30T01:07:50;42.67;;;20.52;;
43048;SDS011;28673;44.412;11.918;2024-01-30T01:10:16;42.22;;;19.58;;
43048;SDS011;28673;44.412;11.918;2024-01-30T01:12:43;46.40;;;22.48;;
43048;SDS011;28673;44.412;11.918;2024-01-30T01:15:09;55.90;;;22.30;;
43048;SDS011;28673;44.412;11.918;2024-01-30T01:17:36;42.97;;;19.50;;
43048;SDS011;28673;44.412;11.918;2024-01-30T01:20:03;47.25;;;19.80;;
43048;SDS011;28673;44.412;11.918;2024-01-30T01:22:30;44.70;;;21.98;;
43048;SDS011;28673;44.412;11.918;2024-01-30T01:24:56;48.17;;;21.50;;
43048;SDS011;28673;44.412;11.918;2024-01-30T01:27:22;37.13;;;19.60;;
43048;SDS011;28673;44.412;11.918;2024-01-30T01:29:48;35.75;;;19.08;;
43048;SDS011;28673;44.412;11.918;2024-01-30T01:32:14;34.80;;;18.92;;
43048;SDS011;28673;44.412;11.918;2024-01-30T01:34:39;38.35;;;17.40;;
43048;SDS011;28673;44.412;11.918;2024-01-30T01:37:05;39.13;;;18.45;;
43048;SDS011;28673;44.412;11.918;2024-01-30T01:39:32;39.60;;;19.55;;
43048;SDS011;28673;44.412;11.918;2024-01-30T01:41:58;42.60;;;20.77;;
43048;SDS011;28673;44.412;11.918;2024-01-30T01:44:24;66.32;;;20.77;;
43048;SDS011;28673;44.412;11.918;2024-01-30T01:46:50;37.88;;;20.13;;
43048;SDS011;28673;44.412;11.918;2024-01-30T01:49:17;37.22;;;19.45;;
43048;SDS011;28673;44.412;11.918;2024-01-30T01:51:44;54.60;;;18.67;;
43048;SDS011;28673;44.412;11.918;2024-01-30T01:54:12;51.10;;;20.02;;
43048;SDS011;28673;44.412;11.918;2024-01-30T01:56:39;45.55;;;20.98;;
43048;SDS011;28673;44.412;11.918;2024-01-30T01:59:07;48.17;;;19.08;;
43048;SDS011;28673;44.412;11.918;2024-01-30T02:01:34;36.08;;;17.83;;
43048;SDS011;28673;44.412;11.918;2024-01-30T02:04:06;39.00;;;18.48;;
43048;SDS011;28673;44.412;11.918;2024-01-30T02:06:33;52.28;;;18.20;;
43048;SDS011;28673;44.412;11.918;2024-01-30T02:08:59;33.25;;;16.67;;
43048;SDS011;28673;44.412;11.918;2024-01-30T02:11:25;39.55;;;17.40;;
43048;SDS011;28673;44.412;11.918;2024-01-30T02:13:52;34.10;;;17.33;;
43048;SDS011;28673;44.412;11.918;2024-01-30T02:16:18;31.00;;;16.83;;
43048;SDS011;28673;44.412;11.918;2024-01-30T02:18:44;31.30;;;15.85;;
43048;SDS011;28673;44.412;11.918;2024-01-30T02:21:13;36.28;;;15.93;;
43048;SDS011;28673;44.412;11.918;2024-01-30T02:23:43;31.83;;;16.58;;
43048;SDS011;28673;44.412;11.918;2024-01-30T02:26:10;33.30;;;17.63;;
43048;SDS011;28673;44.412;11.918;2024-01-30T02:28:37;39.00;;;17.70;;
43048;SDS011;28673;44.412;11.918;2024-01-30T02:31:03;26.55;;;15.90;;
43048;SDS011;28673;44.412;11.918;2024-01-30T02:33:29;34.80;;;17.98;;
43048;SDS011;28673;44.412;11.918;2024-01-30T02:35:55;33.72;;;16.55;;
43048;SDS011;28673;44.412;11.918;2024-01-30T02:38:21;41.88;;;17.45;;
43048;SDS011;28673;44.412;11.918;2024-01-30T02:40:48;32.30;;;18.30;;
43048;SDS011;28673;44.412;11.918;2024-01-30T02:43:14;34.05;;;16.42;;
43048;SDS011;28673;44.412;11.918;2024-01-30T02:45:41;36.60;;;18.38;;
43048;SDS011;28673;44.412;11.918;2024-01-30T02:48:07;38.45;;;18.42;;
43048;SDS011;28673;44.412;11.918;2024-01-30T02:50:33;31.23;;;17.08;;
43048;SDS011;28673;44.412;11.918;2024-01-30T02:52:59;35.03;;;16.00;;
43048;SDS011;28673;44.412;11.918;2024-01-30T02:55:24;31.95;;;17.33;;
43048;SDS011;28673;44.412;11.918;2024-01-30T02:57:50;34.85;;;16.92;;
43048;SDS011;28673;44.412;11.918;2024-01-30T03:00:16;38.85;;;17.92;;
43048;SDS011;28673;44.412;11.918;2024-01-30T03:02:44;39.55;;;17.48;;
43048;SDS011;28673;44.412;11.918;2024-01-30T03:05:10;41.10;;;18.40;;
43048;SDS011;28673;44.412;11.918;2024-01-30T03:07:36;30.52;;;15.77;;
43048;SDS011;28673;44.412;11.918;2024-01-30T03:10:03;32.28;;;17.30;;
43048;SDS011;28673;44.412;11.918;2024-01-30T03:12:31;29.63;;;14.95;;
43048;SDS011;28673;44.412;11.918;2024-01-30T03:14:57;36.85;;;15.40;;
43048;SDS011;28673;44.412;11.918;2024-01-30T03:17:23;44.90;;;19.08;;
43048;SDS011;28673;44.412;11.918;2024-01-30T03:19:49;40.55;;;16.58;;
43048;SDS011;28673;44.412;11.918;2024-01-30T03:22:15;30.38;;;16.70;;
43048;SDS011;28673;44.412;11.918;2024-01-30T03:24:41;25.58;;;12.90;;
43048;SDS011;28673;44.412;11.918;2024-01-30T03:27:08;28.38;;;16.02;;
43048;SDS011;28673;44.412;11.918;2024-01-30T03:29:34;28.85;;;16.23;;
43048;SDS011;28673;44.412;11.918;2024-01-30T03:31:59;46.78;;;16.15;;
43048;SDS011;28673;44.412;11.918;2024-01-30T03:34:25;39.60;;;16.48;;
43048;SDS011;28673;44.412;11.918;2024-01-30T03:36:51;59.85;;;17.65;;
43048;SDS011;28673;44.412;11.918;2024-01-30T03:39:17;29.60;;;15.73;;
43048;SDS011;28673;44.412;11.918;2024-01-30T03:41:43;27.20;;;15.30;;
43048;SDS011;28673;44.412;11.918;2024-01-30T03:44:09;30.20;;;14.90;;
43048;SDS011;28673;44.412;11.918;2024-01-30T03:46:35;28.27;;;16.35;;
43048;SDS011;28673;44.412;11.918;2024-01-30T03:49:01;30.30;;;14.63;;
43048;SDS011;28673;44.412;11.918;2024-01-30T03:51:27;33.90;;;14.73;;
43048;SDS011;28673;44.412;11.918;2024-01-30T03:53:53;31.38;;;16.00;;
43048;SDS011;28673;44.412;11.918;2024-01-30T03:56:19;33.30;;;15.27;;
43048;SDS011;28673;44.412;11.918;2024-01-30T03:58:44;25.67;;;13.95;;
43048;SDS011;28673;44.412;11.918;2024-01-30T04:01:13;28.40;;;13.93;;
43048;SDS011;28673;44.412;11.918;2024-01-30T04:03:40;32.83;;;15.45;;
43048;SDS011;28673;44.412;11.918;2024-01-30T04:06:06;30.33;;;15.27;;
43048;SDS011;28673;44.412;11.918;2024-01-30T04:08:32;28.10;;;14.70;;
43048;SDS011;28673;44.412;11.918;2024-01-30T04:10:58;27.13;;;13.65;;
43048;SDS011;28673;44.412;11.918;2024-01-30T04:13:24;30.67;;;14.48;;
43048;SDS011;28673;44.412;11.918;2024-01-30T04:15:50;25.63;;;15.30;;
43048;SDS011;28673;44.412;11.918;2024-01-30T04:18:15;24.77;;;14.60;;
43048;SDS011;28673;44.412;11.918;2024-01-30T04:20:41;32.90;;;16.38;;
43048;SDS011;28673;44.412;11.918;2024-01-30T04:23:07;25.85;;;14.85;;
43048;SDS011;28673;44.412;11.918;2024-01-30T04:25:33;26.33;;;12.95;;
43048;SDS011;28673;44.412;11.918;2024-01-30T04:27:59;31.67;;;16.05;;
43048;SDS011;28673;44.412;11.918;2024-01-30T04:30:24;31.33;;;16.15;;
43048;SDS011;28673;44.412;11.918;2024-01-30T04:32:50;27.90;;;14.93;;
43048;SDS011;28673;44.412;11.918;2024-01-30T04:35:16;28.20;;;15.18;;
43048;SDS011;28673;44.412;11.918;2024-01-30T04:37:42;28.70;;;14.70;;
43048;SDS011;28673;44.412;11.918;2024-01-30T04:40:08;36.20;;;17.02;;
43048;SDS011;28673;44.412;11.918;2024-01-30T04:42:34;26.17;;;14.00;;
43048;SDS011;28673;44.412;11.918;2024-01-30T04:45:00;23.45;;;14.23;;
43048;SDS011;28673;44.412;11.918;2024-01-30T04:47:26;22.67;;;13.18;;
43048;SDS011;28673;44.412;11.918;2024-01-30T04:49:52;22.17;;;13.45;;
43048;SDS011;28673;44.412;11.918;2024-01-30T04:52:17;31.13;;;14.45;;
43048;SDS011;28673;44.412;11.918;2024-01-30T04:54:43;28.30;;;15.15;;
43048;SDS011;28673;44.412;11.918;2024-01-30T04:57:09;25.38;;;13.00;;
43048;SDS011;28673;44.412;11.918;2024-01-30T04:59:37;21.95;;;12.15;;
43048;SDS011;28673;44.412;11.918;2024-01-30T05:02:03;26.02;;;14.02;;
43048;SDS011;28673;44.412;11.918;2024-01-30T05:04:29;25.27;;;12.57;;
43048;SDS011;28673;44.412;11.918;2024-01-30T05:06:54;21.85;;;12.60;;
43048;SDS011;28673;44.412;11.918;2024-01-30T05:09:20;24.95;;;13.57;;
43048;SDS011;28673;44.412;11.918;2024-01-30T05:11:46;27.70;;;13.73;;
43048;SDS011;28673;44.412;11.918;2024-01-30T05:14:12;22.92;;;12.98;;
43048;SDS011;28673;44.412;11.918;2024-01-30T05:16:40;27.90;;;13.80;;
43048;SDS011;28673;44.412;11.918;2024-01-30T05:19:06;31.80;;;14.65;;
43048;SDS011;28673;44.412;11.918;2024-01-30T05:21:32;29.52;;;14.18;;
43048;SDS011;28673;44.412;11.918;2024-01-30T05:23:58;28.90;;;13.82;;
43048;SDS011;28673;44.412;11.918;2024-01-30T05:26:24;25.23;;;14.75;;
43048;SDS011;28673;44.412;11.918;2024-01-30T05:28:49;28.92;;;15.00;;
43048;SDS011;28673;44.412;11.918;2024-01-30T05:31:15;30.40;;;16.08;;
43048;SDS011;28673;44.412;11.918;2024-01-30T05:33:41;29.38;;;13.95;;
43048;SDS011;28673;44.412;11.918;2024-01-30T05:36:07;30.65;;;15.15;;
43048;SDS011;28673;44.412;11.918;2024-01-30T05:38:33;35.13;;;15.05;;
43048;SDS011;28673;44.412;11.918;2024-01-30T05:40:58;36.30;;;17.98;;
43048;SDS011;28673;44.412;11.918;2024-01-30T05:43:24;29.83;;;15.13;;
43048;SDS011;28673;44.412;11.918;2024-01-30T05:45:51;32.20;;;16.48;;
43048;SDS011;28673;44.412;11.918;2024-01-30T05:48:17;31.08;;;16.20;;
43048;SDS011;28673;44.412;11.918;2024-01-30T05:50:43;36.65;;;16.23;;
43048;SDS011;28673;44.412;11.918;2024-01-30T05:53:10;33.22;;;15.93;;
43048;SDS011;28673;44.412;11.918;2024-01-30T05:55:36;37.55;;;15.82;;
43048;SDS011;28673;44.412;11.918;2024-01-30T05:58:02;37.50;;;16.05;;
43048;SDS011;28673;44.412;11.918;2024-01-30T06:00:29;37.10;;;16.67;;
43048;SDS011;28673;44.412;11.918;2024-01-30T06:02:54;31.70;;;16.52;;
43048;SDS011;28673;44.412;11.918;2024-01-30T06:05:20;46.42;;;15.88;;
43048;SDS011;28673;44.412;11.918;2024-01-30T06:07:46;34.13;;;16.55;;
43048;SDS011;28673;44.412;11.918;2024-01-30T06:10:12;40.53;;;15.40;;
43048;SDS011;28673;44.412;11.918;2024-01-30T06:12:38;30.38;;;15.52;;
43048;SDS011;28673;44.412;11.918;2024-01-30T06:15:04;31.00;;;14.15;;
43048;SDS011;28673;44.412;11.918;2024-01-30T06:17:30;30.08;;;15.07;;
43048;SDS011;28673;44.412;11.918;2024-01-30T06:19:56;30.70;;;14.52;;
43048;SDS011;28673;44.412;11.918;2024-01-30T06:22:21;30.27;;;14.68;;
43048;SDS011;28673;44.412;11.918;2024-01-30T06:24:47;29.55;;;15.40;;
43048;SDS011;28673;44.412;11.918;2024-01-30T06:27:14;32.83;;;14.73;;
43048;SDS011;28673;44.412;11.918;2024-01-30T06:29:40;30.98;;;15.02;;
43048;SDS011;28673;44.412;11.918;2024-01-30T06:32:08;27.65;;;14.02;;
43048;SDS011;28673;44.412;11.918;2024-01-30T06:34:34;32.17;;;15.27;;
43048;SDS011;28673;44.412;11.918;2024-01-30T06:37:00;36.85;;;14.73;;
43048;SDS011;28673;44.412;11.918;2024-01-30T06:39:28;27.92;;;15.25;;
43048;SDS011;28673;44.412;11.918;2024-01-30T06:41:54;29.85;;;14.52;;
43048;SDS011;28673;44.412;11.918;2024-01-30T06:44:20;32.05;;;14.43;;
43048;SDS011;28673;44.412;11.918;2024-01-30T06:46:45;22.60;;;13.35;;
43048;SDS011;28673;44.412;11.918;2024-01-30T06:49:11;21.00;;;12.07;;
43048;SDS011;28673;44.412;11.918;2024-01-30T06:51:37;25.30;;;13.10;;
43048;SDS011;28673;44.412;11.918;2024-01-30T06:54:03;25.85;;;13.45;;
43048;SDS011;28673;44.412;11.918;2024-01-30T06:56:29;35.03;;;13.48;;
43048;SDS011;28673;44.412;11.918;2024-01-30T06:58:55;38.92;;;13.65;;
43048;SDS011;28673;44.412;11.918;2024-01-30T07:01:27;30.15;;;15.23;;
43048;SDS011;28673;44.412;11.918;2024-01-30T07:03:59;34.53;;;15.88;;
43048;SDS011;28673;44.412;11.918;2024-01-30T07:06:25;36.13;;;14.75;;
43048;SDS011;28673;44.412;11.918;2024-01-30T07:08:50;27.90;;;12.80;;
43048;SDS011;28673;44.412;11.918;2024-01-30T07:11:19;24.55;;;13.25;;
43048;SDS011;28673;44.412;11.918;2024-01-30T07:13:52;30.33;;;14.02;;
43048;SDS011;28673;44.412;11.918;2024-01-30T07:16:19;32.00;;;15.10;;
43048;SDS011;28673;44.412;11.918;2024-01-30T07:18:44;32.70;;;15.50;;
43048;SDS011;28673;44.412;11.918;2024-01-30T07:21:11;38.40;;;15.32;;
43048;SDS011;28673;44.412;11.918;2024-01-30T07:23:37;38.58;;;17.88;;
43048;SDS011;28673;44.412;11.918;2024-01-30T07:26:06;37.38;;;16.02;;
43048;SDS011;28673;44.412;11.918;2024-01-30T07:28:33;38.08;;;15.85;;
43048;SDS011;28673;44.412;11.918;2024-01-30T07:31:00;33.10;;;16.45;;
43048;SDS011;28673;44.412;11.918;2024-01-30T07:33:26;34.25;;;17.00;;
43048;SDS011;28673;44.412;11.918;2024-01-30T07:35:52;44.67;;;16.63;;
43048;SDS011;28673;44.412;11.918;2024-01-30T07:38:18;45.40;;;17.52;;
43048;SDS011;28673;44.412;11.918;2024-01-30T07:40:45;39.30;;;17.40;;
43048;SDS011;28673;44.412;11.918;2024-01-30T07:43:11;31.77;;;16.20;;
43048;SDS011;28673;44.412;11.918;2024-01-30T07:45:37;35.42;;;18.02;;
43048;SDS011;28673;44.412;11.918;2024-01-30T07:48:04;39.47;;;17.40;;
43048;SDS011;28673;44.412;11.918;2024-01-30T07:50:33;43.90;;;18.60;;
43048;SDS011;28673;44.412;11.918;2024-01-30T07:52:59;34.20;;;17.15;;
43048;SDS011;28673;44.412;11.918;2024-01-30T07:55:26;54.63;;;18.50;;
43048;SDS011;28673;44.412;11.918;2024-01-30T07:57:57;43.53;;;16.52;;
43048;SDS011;28673;44.412;11.918;2024-01-30T08:00:24;36.53;;;17.00;;
43048;SDS011;28673;44.412;11.918;2024-01-30T08:02:49;73.35;;;18.67;;
43048;SDS011;28673;44.412;11.918;2024-01-30T08:05:15;36.47;;;16.10;;
43048;SDS011;28673;44.412;11.918;2024-01-30T08:07:41;38.50;;;19.15;;
43048;SDS011;28673;44.412;11.918;2024-01-30T08:10:08;45.72;;;19.48;;
43048;SDS011;28673;44.412;11.918;2024-01-30T08:12:34;37.40;;;17.60;;
43048;SDS011;28673;44.412;11.918;2024-01-30T08:15:00;38.53;;;18.67;;
43048;SDS011;28673;44.412;11.918;2024-01-30T08:17:25;37.00;;;18.48;;
43048;SDS011;28673;44.412;11.918;2024-01-30T08:19:51;42.17;;;18.40;;
43048;SDS011;28673;44.412;11.918;2024-01-30T08:22:17;36.70;;;16.80;;
43048;SDS011;28673;44.412;11.918;2024-01-30T08:24:43;38.60;;;18.77;;
43048;SDS011;28673;44.412;11.918;2024-01-30T08:27:08;36.25;;;16.13;;
43048;SDS011;28673;44.412;11.918;2024-01-30T08:29:35;36.25;;;17.10;;
43048;SDS011;28673;44.412;11.918;2024-01-30T08:32:01;46.38;;;18.83;;
43048;SDS011;28673;44.412;11.918;2024-01-30T08:34:27;45.20;;;19.10;;
43048;SDS011;28673;44.412;11.918;2024-01-30T08:36:53;42.05;;;19.73;;
43048;SDS011;28673;44.412;11.918;2024-01-30T08:39:19;46.58;;;20.40;;
43048;SDS011;28673;44.412;11.918;2024-01-30T08:41:45;35.85;;;18.38;;
43048;SDS011;28673;44.412;11.918;2024-01-30T08:44:10;47.78;;;18.88;;
43048;SDS011;28673;44.412;11.918;2024-01-30T08:46:36;40.95;;;19.55;;
43048;SDS011;28673;44.412;11.918;2024-01-30T08:49:02;39.67;;;18.42;;
43048;SDS011;28673;44.412;11.918;2024-01-30T08:51:31;37.58;;;20.17;;
43048;SDS011;28673;44.412;11.918;2024-01-30T08:53:57;39.50;;;19.50;;
43048;SDS011;28673;44.412;11.918;2024-01-30T08:56:23;41.63;;;18.88;;
43048;SDS011;28673;44.412;11.918;2024-01-30T08:58:48;35.70;;;18.40;;
43048;SDS011;28673;44.412;11.918;2024-01-30T09:01:14;37.25;;;20.13;;
43048;SDS011;28673;44.412;11.918;2024-01-30T09:03:40;42.17;;;22.08;;
43048;SDS011;28673;44.412;11.918;2024-01-30T09:06:08;40.70;;;19.15;;
43048;SDS011;28673;44.412;11.918;2024-01-30T09:08:35;47.20;;;20.52;;
43048;SDS011;28673;44.412;11.918;2024-01-30T09:11:01;42.15;;;20.55;;
43048;SDS011;28673;44.412;11.918;2024-01-30T09:13:33;39.60;;;19.05;;
43048;SDS011;28673;44.412;11.918;2024-01-30T09:15:59;44.58;;;20.92;;
43048;SDS011;28673;44.412;11.918;2024-01-30T09:18:24;39.50;;;18.42;;
43048;SDS011;28673;44.412;11.918;2024-01-30T09:20:50;41.97;;;21.38;;
43048;SDS011;28673;44.412;11.918;2024-01-30T09:23:16;48.88;;;21.35;;
43048;SDS011;28673;44.412;11.918;2024-01-30T09:25:43;47.60;;;23.55;;
43048;SDS011;28673;44.412;11.918;2024-01-30T09:28:09;54.65;;;23.33;;
43048;SDS011;28673;44.412;11.918;2024-01-30T09:30:35;55.15;;;22.40;;
43048;SDS011;28673;44.412;11.918;2024-01-30T09:33:01;45.45;;;24.20;;
43048;SDS011;28673;44.412;11.918;2024-01-30T09:35:27;52.58;;;23.60;;
43048;SDS011;28673;44.412;11.918;2024-01-30T09:37:53;65.57;;;26.08;;
43048;SDS011;28673;44.412;11.918;2024-01-30T09:40:19;61.72;;;26.42;;
43048;SDS011;28673;44.412;11.918;2024-01-30T09:42:50;52.28;;;24.58;;
43048;SDS011;28673;44.412;11.918;2024-01-30T09:45:19;67.15;;;25.25;;
43048;SDS011;28673;44.412;11.918;2024-01-30T09:47:45;60.55;;;27.13;;
43048;SDS011;28673;44.412;11.918;2024-01-30T09:50:12;53.55;;;26.55;;
43048;SDS011;28673;44.412;11.918;2024-01-30T09:52:39;51.83;;;24.65;;
43048;SDS011;28673;44.412;11.918;2024-01-30T09:55:06;55.90;;;24.98;;
43048;SDS011;28673;44.412;11.918;2024-01-30T09:57:32;48.75;;;23.60;;
43048;SDS011;28673;44.412;11.918;2024-01-30T09:59:59;53.22;;;25.50;;
43048;SDS011;28673;44.412;11.918;2024-01-30T10:02:25;61.75;;;29.75;;
43048;SDS011;28673;44.412;11.918;2024-01-30T10:04:51;60.13;;;25.20;;
43048;SDS011;28673;44.412;11.918;2024-01-30T10:07:17;52.05;;;25.08;;
43048;SDS011;28673;44.412;11.918;2024-01-30T10:09:44;69.93;;;27.38;;
43048;SDS011;28673;44.412;11.918;2024-01-30T10:12:10;59.22;;;27.10;;
43048;SDS011;28673;44.412;11.918;2024-01-30T10:14:39;45.00;;;24.75;;
43048;SDS011;28673;44.412;11.918;2024-01-30T10:17:07;52.67;;;23.98;;
43048;SDS011;28673;44.412;11.918;2024-01-30T10:19:33;54.97;;;27.42;;
43048;SDS011;28673;44.412;11.918;2024-01-30T10:22:03;66.30;;;29.25;;
43048;SDS011;28673;44.412;11.918;2024-01-30T10:24:29;57.30;;;27.08;;
43048;SDS011;28673;44.412;11.918;2024-01-30T10:26:55;59.58;;;25.83;;
43048;SDS011;28673;44.412;11.918;2024-01-30T10:29:22;61.35;;;26.85;;
43048;SDS011;28673;44.412;11.918;2024-01-30T10:32:00;53.28;;;25.40;;
43048;SDS011;28673;44.412;11.918;2024-01-30T10:34:28;59.95;;;27.75;;
43048;SDS011;28673;44.412;11.918;2024-01-30T10:37:15;58.50;;;25.83;;
43048;SDS011;28673;44.412;11.918;2024-01-30T10:39:42;47.75;;;25.73;;
43048;SDS011;28673;44.412;11.918;2024-01-30T10:42:13;55.15;;;26.65;;
43048;SDS011;28673;44.412;11.918;2024-01-30T10:44:56;51.53;;;26.50;;
43048;SDS011;28673;44.412;11.918;2024-01-30T10:47:52;55.55;;;25.80;;
43048;SDS011;28673;44.412;11.918;2024-01-30T10:50:21;54.40;;;25.88;;
43048;SDS011;28673;44.412;11.918;2024-01-30T10:52:49;52.55;;;25.08;;
43048;SDS011;28673;44.412;11.918;2024-01-30T10:55:16;49.90;;;25.08;;
43048;SDS011;28673;44.412;11.918;2024-01-30T10:57:43;47.45;;;25.33;;
43048;SDS011;28673;44.412;11.918;2024-01-30T11:00:10;49.67;;;26.55;;
43048;SDS011;28673;44.412;11.918;2024-01-30T11:02:38;50.65;;;24.65;;
43048;SDS011;28673;44.412;11.918;2024-01-30T11:05:06;50.83;;;25.13;;
43048;SDS011;28673;44.412;11.918;2024-01-30T11:07:33;51.90;;;26.15;;
43048;SDS011;28673;44.412;11.918;2024-01-30T11:12:27;64.53;;;28.20;;
43048;SDS011;28673;44.412;11.918;2024-01-30T11:15:06;59.90;;;26.67;;
43048;SDS011;28673;44.412;11.918;2024-01-30T11:20:48;65.55;;;31.05;;
43048;SDS011;28673;44.412;11.918;2024-01-30T11:23:11;63.30;;;30.40;;
43048;SDS011;28673;44.412;11.918;2024-01-30T11:25:37;66.03;;;32.13;;
43048;SDS011;28673;44.412;11.918;2024-01-30T11:28:03;57.28;;;30.52;;
43048;SDS011;28673;44.412;11.918;2024-01-30T11:30:30;59.83;;;31.10;;
43048;SDS011;28673;44.412;11.918;2024-01-30T11:33:08;78.28;;;32.30;;
43048;SDS011;28673;44.412;11.918;2024-01-30T11:38:04;63.05;;;32.35;;
43048;SDS011;28673;44.412;11.918;2024-01-30T11:40:32;63.50;;;31.00;;
43048;SDS011;28673;44.412;11.918;2024-01-30T11:42:59;54.88;;;27.42;;
43048;SDS011;28673;44.412;11.918;2024-01-30T11:45:26;60.28;;;26.52;;
43048;SDS011;28673;44.412;11.918;2024-01-30T11:47:53;61.55;;;28.15;;
43048;SDS011;28673;44.412;11.918;2024-01-30T11:50:19;53.00;;;25.75;;
43048;SDS011;28673;44.412;11.918;2024-01-30T11:52:45;51.38;;;25.65;;
43048;SDS011;28673;44.412;11.918;2024-01-30T11:55:13;54.60;;;27.05;;
43048;SDS011;28673;44.412;11.918;2024-01-30T11:57:40;50.75;;;24.83;;
43048;SDS011;28673;44.412;11.918;2024-01-30T12:00:06;46.67;;;26.00;;
43048;SDS011;28673;44.412;11.918;2024-01-30T12:02:40;46.85;;;25.25;;
43048;SDS011;28673;44.412;11.918;2024-01-30T12:05:07;57.30;;;27.25;;
43048;SDS011;28673;44.412;11.918;2024-01-30T12:07:33;52.40;;;28.35;;
43048;SDS011;28673;44.412;11.918;2024-01-30T12:09:59;52.72;;;28.40;;
43048;SDS011;28673;44.412;11.918;2024-01-30T12:12:25;53.80;;;26.30;;
43048;SDS011;28673;44.412;11.918;2024-01-30T12:14:52;57.03;;;27.65;;
43048;SDS011;28673;44.412;11.918;2024-01-30T12:17:28;47.42;;;27.65;;
43048;SDS011;28673;44.412;11.918;2024-01-30T12:22:39;47.40;;;23.95;;
43048;SDS011;28673;44.412;11.918;2024-01-30T12:27:36;50.83;;;24.52;;
43048;SDS011;28673;44.412;11.918;2024-01-30T12:30:06;51.92;;;26.02;;
43048;SDS011;28673;44.412;11.918;2024-01-30T12:32:36;48.00;;;25.25;;
43048;SDS011;28673;44.412;11.918;2024-01-30T12:35:06;50.35;;;25.20;;
43048;SDS011;28673;44.412;11.918;2024-01-30T12:37:36;52.28;;;25.23;;
43048;SDS011;28673;44.412;11.918;2024-01-30T12:40:02;66.95;;;28.88;;
43048;SDS011;28673;44.412;11.918;2024-01-30T12:42:28;61.05;;;26.77;;
43048;SDS011;28673;44.412;11.918;2024-01-30T12:44:56;46.53;;;25.15;;
43048;SDS011;28673;44.412;11.918;2024-01-30T12:47:23;55.33;;;25.10;;
43048;SDS011;28673;44.412;11.918;2024-01-30T12:49:48;51.75;;;24.58;;
43048;SDS011;28673;44.412;11.918;2024-01-30T12:52:18;48.35;;;26.65;;
43048;SDS011;28673;44.412;11.918;2024-01-30T12:54:44;54.33;;;25.85;;
43048;SDS011;28673;44.412;11.918;2024-01-30T12:57:10;48.50;;;26.23;;
43048;SDS011;28673;44.412;11.918;2024-01-30T12:59:36;58.55;;;27.40;;
43048;SDS011;28673;44.412;11.918;2024-01-30T13:02:02;46.03;;;25.00;;
43048;SDS011;28673;44.412;11.918;2024-01-30T13:04:29;51.55;;;25.83;;
43048;SDS011;28673;44.412;11.918;2024-01-30T13:06:55;52.97;;;26.67;;
43048;SDS011;28673;44.412;11.918;2024-01-30T13:09:21;55.42;;;26.45;;
43048;SDS011;28673;44.412;11.918;2024-01-30T13:11:48;59.05;;;29.40;;
43048;SDS011;28673;44.412;11.918;2024-01-30T13:14:15;61.30;;;27.27;;
43048;SDS011;28673;44.412;11.918;2024-01-30T13:16:41;53.67;;;28.08;;
43048;SDS011;28673;44.412;11.918;2024-01-30T13:19:07;57.67;;;27.17;;
43048;SDS011;28673;44.412;11.918;2024-01-30T13:21:32;62.13;;;27.92;;
43048;SDS011;28673;44.412;11.918;2024-01-30T13:23:58;60.15;;;28.27;;
43048;SDS011;28673;44.412;11.918;2024-01-30T13:26:25;62.95;;;30.20;;
43048;SDS011;28673;44.412;11.918;2024-01-30T13:28:50;69.65;;;30.95;;
43048;SDS011;28673;44.412;11.918;2024-01-30T13:31:16;64.00;;;28.70;;
43048;SDS011;28673;44.412;11.918;2024-01-30T13:33:43;57.70;;;28.42;;
43048;SDS011;28673;44.412;11.918;2024-01-30T13:36:10;53.97;;;25.95;;
43048;SDS011;28673;44.412;11.918;2024-01-30T13:38:37;65.53;;;29.00;;
43048;SDS011;28673;44.412;11.918;2024-01-30T13:41:03;63.28;;;30.02;;
43048;SDS011;28673;44.412;11.918;2024-01-30T13:43:29;58.25;;;29.00;;
43048;SDS011;28673;44.412;11.918;2024-01-30T13:45:55;56.20;;;27.73;;
43048;SDS011;28673;44.412;11.918;2024-01-30T13:48:21;52.58;;;27.33;;
43048;SDS011;28673;44.412;11.918;2024-01-30T13:50:47;56.13;;;27.77;;
43048;SDS011;28673;44.412;11.918;2024-01-30T13:53:13;59.10;;;28.45;;
43048;SDS011;28673;44.412;11.918;2024-01-30T13:55:38;62.50;;;27.90;;
43048;SDS011;28673;44.412;11.918;2024-01-30T13:58:04;67.05;;;27.30;;
43048;SDS011;28673;44.412;11.918;2024-01-30T14:00:31;59.17;;;26.52;;
43048;SDS011;28673;44.412;11.918;2024-01-30T14:02:59;53.67;;;26.90;;
43048;SDS011;28673;44.412;11.918;2024-01-30T14:05:26;58.40;;;28.50;;
43048;SDS011;28673;44.412;11.918;2024-01-30T14:07:54;56.28;;;26.85;;
43048;SDS011;28673;44.412;11.918;2024-01-30T14:10:22;66.13;;;28.27;;
43048;SDS011;28673;44.412;11.918;2024-01-30T14:12:48;60.47;;;29.63;;
43048;SDS011;28673;44.412;11.918;2024-01-30T14:15:14;68.70;;;31.67;;
43048;SDS011;28673;44.412;11.918;2024-01-30T14:17:40;55.83;;;29.23;;
43048;SDS011;28673;44.412;11.918;2024-01-30T14:20:06;69.00;;;29.27;;